sensor_id;sensor_type;location;lat;lon;timestamp;P1;durP1;ratioP1;P2;durP2;ratioP2
22359;SDS011;11347;52.030;4.690;2022-12-29T00:02:21;1.30;;;0.73;;
22359;SDS011;11347;52.030;4.690;2022-12-29T00:04:46;1.17;;;0.60;;
22359;SDS011;11347;52.030;4.690;2022-12-29T00:07:15;1.20;;;0.70;;
22359;SDS011;11347;52.030;4.690;2022-12-29T00:09:40;1.43;;;0.60;;
22359;SDS011;11347;52.030;4.690;2022-12-29T00:12:06;0.70;;;0.50;;
22359;SDS011;11347;52.030;4.690;2022-12-29T00:14:31;1.27;;;0.50;;
22359;SDS011;11347;52.030;4.690;2022-12-29T00:17:16;0.63;;;0.40;;
22359;SDS011;11347;52.030;4.690;2022-12-29T00:19:41;1.00;;;0.70;;
22359;SDS011;11347;52.030;4.690;2022-12-29T00:22:25;0.63;;;0.50;;
22359;SDS011;11347;52.030;4.690;2022-12-29T00:25:10;0.60;;;0.43;;
22359;SDS011;11347;52.030;4.690;2022-12-29T00:27:55;0.60;;;0.50;;
22359;SDS011;11347;52.030;4.690;2022-12-29T00:30:40;1.33;;;0.70;;
22359;SDS011;11347;52.030;4.690;2022-12-29T00:33:31;0.83;;;0.40;;
22359;SDS011;11347;52.030;4.690;2022-12-29T00:38:47;0.87;;;0.57;;
22359;SDS011;11347;52.030;4.690;2022-12-29T00:41:35;1.13;;;0.60;;
22359;SDS011;11347;52.030;4.690;2022-12-29T00:44:19;0.83;;;0.50;;
22359;SDS011;11347;52.030;4.690;2022-12-29T00:46:44;0.77;;;0.50;;
22359;SDS011;11347;52.030;4.690;2022-12-29T00:49:11;1.33;;;0.60;;
22359;SDS011;11347;52.030;4.690;2022-12-29T00:52:17;0.93;;;0.47;;
22359;SDS011;11347;52.030;4.690;2022-12-29T00:54:45;1.13;;;0.50;;
22359;SDS011;11347;52.030;4.690;2022-12-29T00:57:10;0.60;;;0.53;;
22359;SDS011;11347;52.030;4.690;2022-12-29T00:59:41;4.97;;;0.77;;
22359;SDS011;11347;52.030;4.690;2022-12-29T01:02:07;4.10;;;0.60;;
22359;SDS011;11347;52.030;4.690;2022-12-29T01:04:34;2.73;;;0.60;;
22359;SDS011;11347;52.030;4.690;2022-12-29T01:07:00;1.40;;;0.57;;
22359;SDS011;11347;52.030;4.690;2022-12-29T01:09:26;1.67;;;0.60;;
22359;SDS011;11347;52.030;4.690;2022-12-29T01:12:10;1.00;;;0.53;;
22359;SDS011;11347;52.030;4.690;2022-12-29T01:14:38;0.83;;;0.40;;
22359;SDS011;11347;52.030;4.690;2022-12-29T01:17:03;0.60;;;0.40;;
22359;SDS011;11347;52.030;4.690;2022-12-29T01:19:29;0.73;;;0.50;;
22359;SDS011;11347;52.030;4.690;2022-12-29T01:21:58;1.80;;;0.53;;
22359;SDS011;11347;52.030;4.690;2022-12-29T01:24:23;0.60;;;0.47;;
22359;SDS011;11347;52.030;4.690;2022-12-29T01:26:51;1.30;;;0.40;;
22359;SDS011;11347;52.030;4.690;2022-12-29T01:29:17;1.23;;;0.50;;
22359;SDS011;11347;52.030;4.690;2022-12-29T01:31:42;0.83;;;0.50;;
22359;SDS011;11347;52.030;4.690;2022-12-29T01:34:08;1.47;;;0.60;;
22359;SDS011;11347;52.030;4.690;2022-12-29T01:36:33;1.20;;;0.40;;
22359;SDS011;11347;52.030;4.690;2022-12-29T01:38:59;0.60;;;0.50;;
22359;SDS011;11347;52.030;4.690;2022-12-29T01:41:25;1.00;;;0.60;;
22359;SDS011;11347;52.030;4.690;2022-12-29T01:43:54;0.57;;;0.40;;
22359;SDS011;11347;52.030;4.690;2022-12-29T01:46:30;0.73;;;0.50;;
22359;SDS011;11347;52.030;4.690;2022-12-29T01:51:53;0.60;;;0.30;;
22359;SDS011;11347;52.030;4.690;2022-12-29T01:54:45;1.07;;;0.50;;
22359;SDS011;11347;52.030;4.690;2022-12-29T01:57:16;1.40;;;0.60;;
22359;SDS011;11347;52.030;4.690;2022-12-29T01:59:49;1.07;;;0.50;;
22359;SDS011;11347;52.030;4.690;2022-12-29T02:02:28;0.70;;;0.40;;
22359;SDS011;11347;52.030;4.690;2022-12-29T02:04:55;0.93;;;0.40;;
22359;SDS011;11347;52.030;4.690;2022-12-29T02:07:23;1.80;;;0.63;;
22359;SDS011;11347;52.030;4.690;2022-12-29T02:09:51;0.70;;;0.40;;
22359;SDS011;11347;52.030;4.690;2022-12-29T02:12:19;2.03;;;0.50;;
22359;SDS011;11347;52.030;4.690;2022-12-29T02:14:46;1.27;;;0.60;;
22359;SDS011;11347;52.030;4.690;2022-12-29T02:22:53;0.43;;;0.40;;
22359;SDS011;11347;52.030;4.690;2022-12-29T02:25:42;3.63;;;0.50;;
22359;SDS011;11347;52.030;4.690;2022-12-29T02:28:41;0.60;;;0.43;;
22359;SDS011;11347;52.030;4.690;2022-12-29T02:31:21;1.50;;;0.60;;
22359;SDS011;11347;52.030;4.690;2022-12-29T02:37:17;2.13;;;0.50;;
22359;SDS011;11347;52.030;4.690;2022-12-29T02:40:04;1.30;;;0.50;;
22359;SDS011;11347;52.030;4.690;2022-12-29T02:42:40;1.10;;;0.40;;
22359;SDS011;11347;52.030;4.690;2022-12-29T02:45:12;0.60;;;0.50;;
22359;SDS011;11347;52.030;4.690;2022-12-29T02:47:57;1.23;;;0.40;;
22359;SDS011;11347;52.030;4.690;2022-12-29T02:50:27;1.07;;;0.43;;
22359;SDS011;11347;52.030;4.690;2022-12-29T02:53:06;1.17;;;0.60;;
22359;SDS011;11347;52.030;4.690;2022-12-29T02:55:35;1.57;;;0.50;;
22359;SDS011;11347;52.030;4.690;2022-12-29T02:58:20;2.23;;;0.50;;
22359;SDS011;11347;52.030;4.690;2022-12-29T03:01:06;0.60;;;0.50;;
22359;SDS011;11347;52.030;4.690;2022-12-29T03:11:33;1.70;;;0.60;;
22359;SDS011;11347;52.030;4.690;2022-12-29T03:18:04;2.00;;;0.80;;
22359;SDS011;11347;52.030;4.690;2022-12-29T03:20:39;2.50;;;0.77;;
22359;SDS011;11347;52.030;4.690;2022-12-29T03:23:14;3.90;;;0.80;;
22359;SDS011;11347;52.030;4.690;2022-12-29T03:25:43;2.87;;;0.80;;
22359;SDS011;11347;52.030;4.690;2022-12-29T03:28:18;2.20;;;0.60;;
22359;SDS011;11347;52.030;4.690;2022-12-29T03:30:47;1.60;;;0.60;;
22359;SDS011;11347;52.030;4.690;2022-12-29T03:33:23;1.83;;;0.80;;
22359;SDS011;11347;52.030;4.690;2022-12-29T03:35:52;2.50;;;0.70;;
22359;SDS011;11347;52.030;4.690;2022-12-29T03:41:12;3.50;;;0.80;;
22359;SDS011;11347;52.030;4.690;2022-12-29T03:43:44;1.27;;;0.47;;
22359;SDS011;11347;52.030;4.690;2022-12-29T03:46:11;1.30;;;0.53;;
22359;SDS011;11347;52.030;4.690;2022-12-29T03:48:39;3.10;;;0.80;;
22359;SDS011;11347;52.030;4.690;2022-12-29T03:51:04;2.50;;;0.70;;
22359;SDS011;11347;52.030;4.690;2022-12-29T03:53:30;3.27;;;0.80;;
22359;SDS011;11347;52.030;4.690;2022-12-29T03:55:56;3.13;;;0.73;;
22359;SDS011;11347;52.030;4.690;2022-12-29T03:58:22;2.23;;;0.73;;
22359;SDS011;11347;52.030;4.690;2022-12-29T04:00:47;2.47;;;0.73;;
22359;SDS011;11347;52.030;4.690;2022-12-29T04:03:13;2.10;;;0.70;;
22359;SDS011;11347;52.030;4.690;2022-12-29T04:05:38;2.00;;;0.90;;
22359;SDS011;11347;52.030;4.690;2022-12-29T04:08:04;5.63;;;0.80;;
22359;SDS011;11347;52.030;4.690;2022-12-29T04:10:30;3.40;;;0.80;;
22359;SDS011;11347;52.030;4.690;2022-12-29T04:12:55;3.40;;;0.80;;
22359;SDS011;11347;52.030;4.690;2022-12-29T04:15:21;2.87;;;0.97;;
22359;SDS011;11347;52.030;4.690;2022-12-29T04:17:49;3.70;;;0.90;;
22359;SDS011;11347;52.030;4.690;2022-12-29T04:20:14;3.13;;;0.63;;
22359;SDS011;11347;52.030;4.690;2022-12-29T04:22:59;3.93;;;1.00;;
22359;SDS011;11347;52.030;4.690;2022-12-29T04:25:26;2.53;;;0.60;;
22359;SDS011;11347;52.030;4.690;2022-12-29T04:27:52;3.13;;;1.07;;
22359;SDS011;11347;52.030;4.690;2022-12-29T04:30:17;4.07;;;0.83;;
22359;SDS011;11347;52.030;4.690;2022-12-29T04:32:43;2.90;;;0.67;;
22359;SDS011;11347;52.030;4.690;2022-12-29T04:35:08;1.97;;;0.90;;
22359;SDS011;11347;52.030;4.690;2022-12-29T04:37:34;1.93;;;0.60;;
22359;SDS011;11347;52.030;4.690;2022-12-29T04:39:59;3.47;;;0.70;;
22359;SDS011;11347;52.030;4.690;2022-12-29T04:42:25;2.73;;;0.83;;
22359;SDS011;11347;52.030;4.690;2022-12-29T04:44:51;4.03;;;0.80;;
22359;SDS011;11347;52.030;4.690;2022-12-29T04:47:16;3.33;;;0.97;;
22359;SDS011;11347;52.030;4.690;2022-12-29T04:49:42;6.67;;;1.10;;
22359;SDS011;11347;52.030;4.690;2022-12-29T04:52:07;3.83;;;1.20;;
22359;SDS011;11347;52.030;4.690;2022-12-29T04:54:33;2.07;;;0.60;;
22359;SDS011;11347;52.030;4.690;2022-12-29T04:56:59;3.27;;;1.00;;
22359;SDS011;11347;52.030;4.690;2022-12-29T04:59:25;3.20;;;0.83;;
22359;SDS011;11347;52.030;4.690;2022-12-29T05:01:53;4.30;;;1.00;;
22359;SDS011;11347;52.030;4.690;2022-12-29T05:04:19;3.27;;;0.80;;
22359;SDS011;11347;52.030;4.690;2022-12-29T05:06:44;3.30;;;0.83;;
22359;SDS011;11347;52.030;4.690;2022-12-29T05:09:10;4.17;;;0.87;;
22359;SDS011;11347;52.030;4.690;2022-12-29T05:11:35;3.53;;;1.00;;
22359;SDS011;11347;52.030;4.690;2022-12-29T05:14:01;3.80;;;0.90;;
22359;SDS011;11347;52.030;4.690;2022-12-29T05:16:26;3.67;;;0.87;;
22359;SDS011;11347;52.030;4.690;2022-12-29T05:18:52;3.63;;;0.97;;
22359;SDS011;11347;52.030;4.690;2022-12-29T05:21:20;5.07;;;0.90;;
22359;SDS011;11347;52.030;4.690;2022-12-29T05:23:46;2.63;;;0.90;;
22359;SDS011;11347;52.030;4.690;2022-12-29T05:26:11;5.77;;;1.20;;
22359;SDS011;11347;52.030;4.690;2022-12-29T05:28:37;3.23;;;0.80;;
22359;SDS011;11347;52.030;4.690;2022-12-29T05:31:02;5.27;;;0.90;;
22359;SDS011;11347;52.030;4.690;2022-12-29T05:33:28;4.13;;;1.00;;
22359;SDS011;11347;52.030;4.690;2022-12-29T05:35:54;4.77;;;1.03;;
22359;SDS011;11347;52.030;4.690;2022-12-29T05:38:19;4.57;;;0.80;;
22359;SDS011;11347;52.030;4.690;2022-12-29T05:40:45;2.87;;;0.87;;
22359;SDS011;11347;52.030;4.690;2022-12-29T05:43:10;4.60;;;0.90;;
22359;SDS011;11347;52.030;4.690;2022-12-29T05:45:36;4.73;;;1.10;;
22359;SDS011;11347;52.030;4.690;2022-12-29T05:48:02;3.07;;;0.90;;
22359;SDS011;11347;52.030;4.690;2022-12-29T05:50:28;5.67;;;1.10;;
22359;SDS011;11347;52.030;4.690;2022-12-29T05:52:53;5.47;;;1.10;;
22359;SDS011;11347;52.030;4.690;2022-12-29T05:55:19;4.33;;;1.20;;
22359;SDS011;11347;52.030;4.690;2022-12-29T05:57:44;4.23;;;0.97;;
22359;SDS011;11347;52.030;4.690;2022-12-29T06:00:10;4.60;;;0.90;;
22359;SDS011;11347;52.030;4.690;2022-12-29T06:02:36;5.80;;;1.17;;
22359;SDS011;11347;52.030;4.690;2022-12-29T06:05:02;3.20;;;0.87;;
22359;SDS011;11347;52.030;4.690;2022-12-29T06:07:27;5.23;;;1.27;;
22359;SDS011;11347;52.030;4.690;2022-12-29T06:09:53;3.80;;;0.80;;
22359;SDS011;11347;52.030;4.690;2022-12-29T06:12:18;3.53;;;1.00;;
22359;SDS011;11347;52.030;4.690;2022-12-29T06:14:44;5.83;;;1.30;;
22359;SDS011;11347;52.030;4.690;2022-12-29T06:17:09;4.63;;;1.10;;
22359;SDS011;11347;52.030;4.690;2022-12-29T06:19:35;4.00;;;1.00;;
22359;SDS011;11347;52.030;4.690;2022-12-29T06:22:01;3.93;;;1.27;;
22359;SDS011;11347;52.030;4.690;2022-12-29T06:24:26;5.97;;;1.10;;
22359;SDS011;11347;52.030;4.690;2022-12-29T06:26:52;5.27;;;1.10;;
22359;SDS011;11347;52.030;4.690;2022-12-29T06:29:18;3.57;;;0.83;;
22359;SDS011;11347;52.030;4.690;2022-12-29T06:31:45;6.43;;;1.23;;
22359;SDS011;11347;52.030;4.690;2022-12-29T06:34:14;8.00;;;1.27;;
22359;SDS011;11347;52.030;4.690;2022-12-29T06:36:40;4.93;;;1.30;;
22359;SDS011;11347;52.030;4.690;2022-12-29T06:39:05;5.53;;;1.10;;
22359;SDS011;11347;52.030;4.690;2022-12-29T06:41:31;3.60;;;1.10;;
22359;SDS011;11347;52.030;4.690;2022-12-29T06:43:57;6.30;;;1.13;;
22359;SDS011;11347;52.030;4.690;2022-12-29T06:46:22;5.23;;;1.10;;
22359;SDS011;11347;52.030;4.690;2022-12-29T06:48:48;5.00;;;1.13;;
22359;SDS011;11347;52.030;4.690;2022-12-29T06:51:14;3.20;;;0.90;;
22359;SDS011;11347;52.030;4.690;2022-12-29T06:53:39;3.40;;;1.00;;
22359;SDS011;11347;52.030;4.690;2022-12-29T06:56:05;4.60;;;1.00;;
22359;SDS011;11347;52.030;4.690;2022-12-29T06:58:31;7.03;;;1.30;;
22359;SDS011;11347;52.030;4.690;2022-12-29T07:00:56;5.63;;;1.50;;
22359;SDS011;11347;52.030;4.690;2022-12-29T07:03:22;5.90;;;1.27;;
22359;SDS011;11347;52.030;4.690;2022-12-29T07:05:48;5.63;;;1.10;;
22359;SDS011;11347;52.030;4.690;2022-12-29T07:08:14;6.17;;;1.20;;
22359;SDS011;11347;52.030;4.690;2022-12-29T07:10:39;4.87;;;1.20;;
22359;SDS011;11347;52.030;4.690;2022-12-29T07:13:08;6.53;;;1.20;;
22359;SDS011;11347;52.030;4.690;2022-12-29T07:15:34;5.93;;;1.10;;
22359;SDS011;11347;52.030;4.690;2022-12-29T07:18:00;7.33;;;1.20;;
22359;SDS011;11347;52.030;4.690;2022-12-29T07:20:26;6.33;;;1.40;;
22359;SDS011;11347;52.030;4.690;2022-12-29T07:22:52;3.80;;;1.00;;
22359;SDS011;11347;52.030;4.690;2022-12-29T07:25:17;6.77;;;1.23;;
22359;SDS011;11347;52.030;4.690;2022-12-29T07:27:43;4.63;;;1.00;;
22359;SDS011;11347;52.030;4.690;2022-12-29T07:30:08;3.60;;;1.13;;
22359;SDS011;11347;52.030;4.690;2022-12-29T07:32:34;6.00;;;1.17;;
22359;SDS011;11347;52.030;4.690;2022-12-29T07:35:00;6.87;;;1.33;;
22359;SDS011;11347;52.030;4.690;2022-12-29T07:37:26;3.33;;;1.00;;
22359;SDS011;11347;52.030;4.690;2022-12-29T07:39:52;7.97;;;1.20;;
22359;SDS011;11347;52.030;4.690;2022-12-29T07:42:18;5.33;;;1.20;;
22359;SDS011;11347;52.030;4.690;2022-12-29T07:44:43;4.40;;;1.03;;
22359;SDS011;11347;52.030;4.690;2022-12-29T07:47:09;5.67;;;1.30;;
22359;SDS011;11347;52.030;4.690;2022-12-29T07:49:34;5.63;;;1.10;;
22359;SDS011;11347;52.030;4.690;2022-12-29T07:52:00;5.67;;;1.30;;
22359;SDS011;11347;52.030;4.690;2022-12-29T07:54:25;9.47;;;1.63;;
22359;SDS011;11347;52.030;4.690;2022-12-29T07:56:51;7.30;;;1.40;;
22359;SDS011;11347;52.030;4.690;2022-12-29T07:59:17;4.87;;;1.40;;
22359;SDS011;11347;52.030;4.690;2022-12-29T08:01:42;5.40;;;1.20;;
22359;SDS011;11347;52.030;4.690;2022-12-29T08:04:08;6.63;;;1.67;;
22359;SDS011;11347;52.030;4.690;2022-12-29T08:06:33;6.23;;;1.20;;
22359;SDS011;11347;52.030;4.690;2022-12-29T08:08:59;6.23;;;1.17;;
22359;SDS011;11347;52.030;4.690;2022-12-29T08:11:26;4.83;;;1.00;;
22359;SDS011;11347;52.030;4.690;2022-12-29T08:13:51;5.40;;;1.13;;
22359;SDS011;11347;52.030;4.690;2022-12-29T08:16:17;8.27;;;1.20;;
22359;SDS011;11347;52.030;4.690;2022-12-29T08:18:43;8.47;;;1.50;;
22359;SDS011;11347;52.030;4.690;2022-12-29T08:21:09;8.13;;;2.23;;
22359;SDS011;11347;52.030;4.690;2022-12-29T08:23:35;5.23;;;1.10;;
22359;SDS011;11347;52.030;4.690;2022-12-29T08:26:03;4.13;;;1.20;;
22359;SDS011;11347;52.030;4.690;2022-12-29T08:28:33;5.67;;;1.07;;
22359;SDS011;11347;52.030;4.690;2022-12-29T08:31:00;5.83;;;1.30;;
22359;SDS011;11347;52.030;4.690;2022-12-29T08:33:26;5.67;;;1.20;;
22359;SDS011;11347;52.030;4.690;2022-12-29T08:35:52;5.87;;;1.20;;
22359;SDS011;11347;52.030;4.690;2022-12-29T08:38:23;5.97;;;1.10;;
22359;SDS011;11347;52.030;4.690;2022-12-29T08:40:48;6.47;;;1.30;;
22359;SDS011;11347;52.030;4.690;2022-12-29T08:43:16;5.73;;;1.33;;
22359;SDS011;11347;52.030;4.690;2022-12-29T08:45:42;7.90;;;1.40;;
22359;SDS011;11347;52.030;4.690;2022-12-29T08:48:07;5.37;;;1.17;;
22359;SDS011;11347;52.030;4.690;2022-12-29T08:50:33;10.10;;;1.60;;
22359;SDS011;11347;52.030;4.690;2022-12-29T08:53:05;4.90;;;1.67;;
22359;SDS011;11347;52.030;4.690;2022-12-29T08:55:30;6.67;;;1.50;;
22359;SDS011;11347;52.030;4.690;2022-12-29T08:57:56;7.17;;;1.17;;
22359;SDS011;11347;52.030;4.690;2022-12-29T09:00:21;10.47;;;1.50;;
22359;SDS011;11347;52.030;4.690;2022-12-29T09:02:50;9.27;;;1.43;;
22359;SDS011;11347;52.030;4.690;2022-12-29T09:05:18;7.73;;;1.60;;
22359;SDS011;11347;52.030;4.690;2022-12-29T09:07:44;8.00;;;1.70;;
22359;SDS011;11347;52.030;4.690;2022-12-29T09:10:10;6.47;;;1.50;;
22359;SDS011;11347;52.030;4.690;2022-12-29T09:12:35;6.87;;;1.70;;
22359;SDS011;11347;52.030;4.690;2022-12-29T09:15:01;6.13;;;1.70;;
22359;SDS011;11347;52.030;4.690;2022-12-29T09:17:27;7.07;;;1.60;;
22359;SDS011;11347;52.030;4.690;2022-12-29T09:20:15;4.77;;;1.10;;
22359;SDS011;11347;52.030;4.690;2022-12-29T09:22:42;7.13;;;1.50;;
22359;SDS011;11347;52.030;4.690;2022-12-29T09:25:08;5.87;;;1.63;;
22359;SDS011;11347;52.030;4.690;2022-12-29T09:27:35;7.77;;;1.80;;
22359;SDS011;11347;52.030;4.690;2022-12-29T09:30:02;6.27;;;1.60;;
22359;SDS011;11347;52.030;4.690;2022-12-29T09:32:30;5.07;;;1.23;;
22359;SDS011;11347;52.030;4.690;2022-12-29T09:34:56;5.20;;;1.30;;
22359;SDS011;11347;52.030;4.690;2022-12-29T09:37:21;7.67;;;1.50;;
22359;SDS011;11347;52.030;4.690;2022-12-29T09:39:47;6.93;;;1.30;;
22359;SDS011;11347;52.030;4.690;2022-12-29T09:42:19;3.80;;;1.17;;
22359;SDS011;11347;52.030;4.690;2022-12-29T09:45:14;8.50;;;1.53;;
22359;SDS011;11347;52.030;4.690;2022-12-29T09:47:43;6.60;;;1.50;;
22359;SDS011;11347;52.030;4.690;2022-12-29T09:52:47;6.17;;;1.60;;
22359;SDS011;11347;52.030;4.690;2022-12-29T09:55:50;8.40;;;1.40;;
22359;SDS011;11347;52.030;4.690;2022-12-29T10:01:21;5.33;;;1.27;;
22359;SDS011;11347;52.030;4.690;2022-12-29T10:03:56;7.30;;;1.63;;
22359;SDS011;11347;52.030;4.690;2022-12-29T10:06:24;6.40;;;1.40;;
22359;SDS011;11347;52.030;4.690;2022-12-29T10:22:25;4.13;;;1.13;;
22359;SDS011;11347;52.030;4.690;2022-12-29T10:25:38;4.67;;;1.20;;
22359;SDS011;11347;52.030;4.690;2022-12-29T10:28:14;6.47;;;1.47;;
22359;SDS011;11347;52.030;4.690;2022-12-29T10:30:46;5.07;;;1.23;;
22359;SDS011;11347;52.030;4.690;2022-12-29T10:33:33;4.47;;;1.30;;
22359;SDS011;11347;52.030;4.690;2022-12-29T10:36:44;5.30;;;1.30;;
22359;SDS011;11347;52.030;4.690;2022-12-29T10:41:47;5.23;;;1.60;;
22359;SDS011;11347;52.030;4.690;2022-12-29T10:44:18;6.43;;;1.20;;
22359;SDS011;11347;52.030;4.690;2022-12-29T10:46:59;5.73;;;1.53;;
22359;SDS011;11347;52.030;4.690;2022-12-29T10:49:29;5.43;;;1.30;;
22359;SDS011;11347;52.030;4.690;2022-12-29T10:51:57;5.57;;;1.23;;
22359;SDS011;11347;52.030;4.690;2022-12-29T10:57:44;8.23;;;1.50;;
22359;SDS011;11347;52.030;4.690;2022-12-29T11:00:14;5.67;;;1.40;;
22359;SDS011;11347;52.030;4.690;2022-12-29T11:03:02;6.03;;;1.60;;
22359;SDS011;11347;52.030;4.690;2022-12-29T11:08:24;6.37;;;1.80;;
22359;SDS011;11347;52.030;4.690;2022-12-29T11:10:57;9.63;;;1.90;;
22359;SDS011;11347;52.030;4.690;2022-12-29T11:13:28;8.13;;;1.63;;
22359;SDS011;11347;52.030;4.690;2022-12-29T11:15:56;8.23;;;1.60;;
22359;SDS011;11347;52.030;4.690;2022-12-29T11:18:23;8.97;;;1.70;;
22359;SDS011;11347;52.030;4.690;2022-12-29T11:20:51;9.07;;;1.70;;
22359;SDS011;11347;52.030;4.690;2022-12-29T11:23:26;7.57;;;1.60;;
22359;SDS011;11347;52.030;4.690;2022-12-29T11:26:05;6.50;;;1.77;;
22359;SDS011;11347;52.030;4.690;2022-12-29T11:28:37;8.07;;;2.13;;
22359;SDS011;11347;52.030;4.690;2022-12-29T11:31:04;9.17;;;1.87;;
22359;SDS011;11347;52.030;4.690;2022-12-29T11:33:31;9.90;;;2.20;;
22359;SDS011;11347;52.030;4.690;2022-12-29T11:36:01;7.40;;;1.80;;
22359;SDS011;11347;52.030;4.690;2022-12-29T11:38:37;7.13;;;1.50;;
22359;SDS011;11347;52.030;4.690;2022-12-29T11:41:06;9.77;;;1.80;;
22359;SDS011;11347;52.030;4.690;2022-12-29T11:43:38;6.17;;;1.60;;
22359;SDS011;11347;52.030;4.690;2022-12-29T11:46:06;7.97;;;1.67;;
22359;SDS011;11347;52.030;4.690;2022-12-29T11:48:40;7.97;;;2.13;;
22359;SDS011;11347;52.030;4.690;2022-12-29T11:51:07;9.97;;;2.03;;
22359;SDS011;11347;52.030;4.690;2022-12-29T11:53:44;10.03;;;2.17;;
22359;SDS011;11347;52.030;4.690;2022-12-29T11:56:13;9.53;;;1.80;;
22359;SDS011;11347;52.030;4.690;2022-12-29T11:58:40;9.73;;;2.23;;
22359;SDS011;11347;52.030;4.690;2022-12-29T12:01:07;8.07;;;1.80;;
22359;SDS011;11347;52.030;4.690;2022-12-29T12:04:10;7.17;;;1.70;;
22359;SDS011;11347;52.030;4.690;2022-12-29T12:06:50;8.10;;;1.80;;
22359;SDS011;11347;52.030;4.690;2022-12-29T12:09:45;8.60;;;2.07;;
22359;SDS011;11347;52.030;4.690;2022-12-29T12:12:55;6.73;;;1.63;;
22359;SDS011;11347;52.030;4.690;2022-12-29T12:15:08;6.33;;;1.80;;
22359;SDS011;11347;52.030;4.690;2022-12-29T12:18:05;8.93;;;1.90;;
22359;SDS011;11347;52.030;4.690;2022-12-29T12:20:54;7.43;;;1.80;;
22359;SDS011;11347;52.030;4.690;2022-12-29T12:26:18;7.30;;;1.60;;
22359;SDS011;11347;52.030;4.690;2022-12-29T12:29:05;7.10;;;1.60;;
22359;SDS011;11347;52.030;4.690;2022-12-29T12:31:41;9.63;;;2.00;;
22359;SDS011;11347;52.030;4.690;2022-12-29T12:51:41;8.93;;;2.00;;
22359;SDS011;11347;52.030;4.690;2022-12-29T12:57:11;7.97;;;1.83;;
22359;SDS011;11347;52.030;4.690;2022-12-29T13:02:15;9.53;;;1.90;;
22359;SDS011;11347;52.030;4.690;2022-12-29T13:10:22;6.97;;;1.57;;
22359;SDS011;11347;52.030;4.690;2022-12-29T13:13:12;8.50;;;2.00;;
22359;SDS011;11347;52.030;4.690;2022-12-29T13:22:28;5.70;;;1.60;;
22359;SDS011;11347;52.030;4.690;2022-12-29T13:27:55;6.57;;;2.00;;
22359;SDS011;11347;52.030;4.690;2022-12-29T13:36:58;7.40;;;1.50;;
22359;SDS011;11347;52.030;4.690;2022-12-29T13:39:26;7.77;;;1.57;;
22359;SDS011;11347;52.030;4.690;2022-12-29T13:41:57;5.73;;;1.43;;
22359;SDS011;11347;52.030;4.690;2022-12-29T13:44:27;6.27;;;1.60;;
22359;SDS011;11347;52.030;4.690;2022-12-29T13:46:56;7.57;;;1.57;;
22359;SDS011;11347;52.030;4.690;2022-12-29T13:49:28;7.93;;;1.80;;
22359;SDS011;11347;52.030;4.690;2022-12-29T13:51:55;6.07;;;1.37;;
22359;SDS011;11347;52.030;4.690;2022-12-29T13:57:10;5.93;;;1.53;;
22359;SDS011;11347;52.030;4.690;2022-12-29T13:59:52;5.10;;;1.27;;
22359;SDS011;11347;52.030;4.690;2022-12-29T14:05:31;4.93;;;1.43;;
22359;SDS011;11347;52.030;4.690;2022-12-29T14:07:58;7.17;;;1.70;;
22359;SDS011;11347;52.030;4.690;2022-12-29T14:10:31;5.27;;;1.60;;
22359;SDS011;11347;52.030;4.690;2022-12-29T15:30:03;5.77;;;1.23;;
22359;SDS011;11347;52.030;4.690;2022-12-29T15:32:40;4.57;;;1.30;;
22359;SDS011;11347;52.030;4.690;2022-12-29T15:35:21;7.27;;;1.30;;
22359;SDS011;11347;52.030;4.690;2022-12-29T15:38:01;6.27;;;1.30;;
22359;SDS011;11347;52.030;4.690;2022-12-29T15:40:39;7.93;;;1.40;;
22359;SDS011;11347;52.030;4.690;2022-12-29T15:45:54;8.00;;;1.33;;
22359;SDS011;11347;52.030;4.690;2022-12-29T15:48:22;6.27;;;1.20;;
22359;SDS011;11347;52.030;4.690;2022-12-29T15:50:49;8.73;;;1.47;;
22359;SDS011;11347;52.030;4.690;2022-12-29T15:53:20;8.90;;;1.40;;
22359;SDS011;11347;52.030;4.690;2022-12-29T15:55:53;8.50;;;1.37;;
22359;SDS011;11347;52.030;4.690;2022-12-29T15:58:41;8.77;;;1.30;;
22359;SDS011;11347;52.030;4.690;2022-12-29T16:04:07;5.73;;;1.10;;
22359;SDS011;11347;52.030;4.690;2022-12-29T16:06:35;7.97;;;1.67;;
22359;SDS011;11347;52.030;4.690;2022-12-29T16:09:15;7.03;;;1.20;;
22359;SDS011;11347;52.030;4.690;2022-12-29T16:11:43;7.53;;;1.23;;
22359;SDS011;11347;52.030;4.690;2022-12-29T16:14:16;6.53;;;1.50;;
22359;SDS011;11347;52.030;4.690;2022-12-29T16:16:44;10.70;;;1.40;;
22359;SDS011;11347;52.030;4.690;2022-12-29T16:19:22;5.73;;;1.40;;
22359;SDS011;11347;52.030;4.690;2022-12-29T16:21:53;6.27;;;1.33;;
22359;SDS011;11347;52.030;4.690;2022-12-29T16:24:20;6.13;;;1.23;;
22359;SDS011;11347;52.030;4.690;2022-12-29T16:27:06;7.80;;;1.60;;
22359;SDS011;11347;52.030;4.690;2022-12-29T16:29:35;11.47;;;1.60;;
22359;SDS011;11347;52.030;4.690;2022-12-29T16:32:01;6.63;;;1.50;;
22359;SDS011;11347;52.030;4.690;2022-12-29T16:34:29;9.17;;;1.47;;
22359;SDS011;11347;52.030;4.690;2022-12-29T16:36:57;9.27;;;1.53;;
22359;SDS011;11347;52.030;4.690;2022-12-29T16:41:56;7.20;;;1.60;;
22359;SDS011;11347;52.030;4.690;2022-12-29T16:44:26;8.53;;;1.83;;
22359;SDS011;11347;52.030;4.690;2022-12-29T16:47:01;8.47;;;2.00;;
22359;SDS011;11347;52.030;4.690;2022-12-29T16:49:43;5.40;;;1.40;;
22359;SDS011;11347;52.030;4.690;2022-12-29T16:52:22;9.47;;;1.60;;
22359;SDS011;11347;52.030;4.690;2022-12-29T16:54:54;6.70;;;1.50;;
22359;SDS011;11347;52.030;4.690;2022-12-29T16:57:33;12.80;;;1.70;;
22359;SDS011;11347;52.030;4.690;2022-12-29T17:00:04;6.80;;;1.50;;
22359;SDS011;11347;52.030;4.690;2022-12-29T17:02:42;13.40;;;1.83;;
22359;SDS011;11347;52.030;4.690;2022-12-29T17:05:11;9.57;;;1.57;;
22359;SDS011;11347;52.030;4.690;2022-12-29T17:07:38;6.40;;;1.40;;
22359;SDS011;11347;52.030;4.690;2022-12-29T17:10:04;7.63;;;1.50;;
22359;SDS011;11347;52.030;4.690;2022-12-29T17:12:30;5.33;;;1.17;;
22359;SDS011;11347;52.030;4.690;2022-12-29T17:15:03;5.20;;;1.20;;
22359;SDS011;11347;52.030;4.690;2022-12-29T17:20:17;4.43;;;1.30;;
22359;SDS011;11347;52.030;4.690;2022-12-29T17:22:45;8.73;;;1.60;;
22359;SDS011;11347;52.030;4.690;2022-12-29T17:25:12;8.53;;;1.43;;
22359;SDS011;11347;52.030;4.690;2022-12-29T17:27:44;6.70;;;1.73;;
22359;SDS011;11347;52.030;4.690;2022-12-29T17:30:13;6.77;;;1.50;;
22359;SDS011;11347;52.030;4.690;2022-12-29T17:32:42;5.50;;;1.60;;
22359;SDS011;11347;52.030;4.690;2022-12-29T17:35:13;6.80;;;1.30;;
22359;SDS011;11347;52.030;4.690;2022-12-29T17:37:40;6.00;;;1.57;;
22359;SDS011;11347;52.030;4.690;2022-12-29T17:40:06;9.40;;;1.47;;
22359;SDS011;11347;52.030;4.690;2022-12-29T17:42:43;6.90;;;1.70;;
22359;SDS011;11347;52.030;4.690;2022-12-29T17:45:20;6.60;;;1.67;;
22359;SDS011;11347;52.030;4.690;2022-12-29T17:47:48;5.77;;;1.50;;
22359;SDS011;11347;52.030;4.690;2022-12-29T17:50:15;8.47;;;1.13;;
22359;SDS011;11347;52.030;4.690;2022-12-29T17:52:50;5.83;;;1.70;;
22359;SDS011;11347;52.030;4.690;2022-12-29T17:55:18;15.00;;;1.50;;
22359;SDS011;11347;52.030;4.690;2022-12-29T17:57:46;10.20;;;1.40;;
22359;SDS011;11347;52.030;4.690;2022-12-29T18:00:18;7.53;;;1.60;;
22359;SDS011;11347;52.030;4.690;2022-12-29T18:02:51;9.23;;;1.47;;
22359;SDS011;11347;52.030;4.690;2022-12-29T18:05:19;4.53;;;1.30;;
22359;SDS011;11347;52.030;4.690;2022-12-29T18:07:46;5.90;;;1.30;;
22359;SDS011;11347;52.030;4.690;2022-12-29T18:10:13;8.03;;;1.37;;
22359;SDS011;11347;52.030;4.690;2022-12-29T18:12:40;5.07;;;1.40;;
22359;SDS011;11347;52.030;4.690;2022-12-29T18:17:48;6.20;;;1.43;;
22359;SDS011;11347;52.030;4.690;2022-12-29T18:20:14;7.77;;;1.73;;
22359;SDS011;11347;52.030;4.690;2022-12-29T18:22:40;7.30;;;1.30;;
22359;SDS011;11347;52.030;4.690;2022-12-29T18:28:00;5.90;;;1.50;;
22359;SDS011;11347;52.030;4.690;2022-12-29T18:30:26;5.27;;;1.30;;
22359;SDS011;11347;52.030;4.690;2022-12-29T18:32:51;5.10;;;1.27;;